createdAt,value
2019-05-01T00:02:49.118Z,10.32
2019-05-01T00:07:51.184Z,10.28
2019-05-01T00:12:52.852Z,10.25
2019-05-01T00:17:54.406Z,10.25
2019-05-01T00:22:56.097Z,10.19
2019-05-01T00:27:57.674Z,10.18
2019-05-01T00:32:59.263Z,10.14
2019-05-01T00:38:00.825Z,10.17
2019-05-01T00:43:02.519Z,10.19
2019-05-01T00:48:04.200Z,10.15
2019-05-01T00:53:05.776Z,10.07
2019-05-01T00:58:15.039Z,10.12
2019-05-01T01:03:16.800Z,10.11
2019-05-01T01:08:18.403Z,10.16
2019-05-01T01:13:19.989Z,10.17
2019-05-01T01:18:21.536Z,10.22
2019-05-01T01:23:23.594Z,10.29
2019-05-01T01:28:25.259Z,10.35
2019-05-01T01:33:26.940Z,10.37
2019-05-01T01:38:28.487Z,10.42
2019-05-01T01:43:39.411Z,10.44
2019-05-01T01:48:41.055Z,10.46
2019-05-01T01:53:42.874Z,10.51
2019-05-01T01:58:44.653Z,10.56
2019-05-01T02:03:50.840Z,10.57
2019-05-01T02:08:56.641Z,10.56
2019-05-01T02:13:56.720Z,10.57
2019-05-01T02:18:58.436Z,10.59
2019-05-01T02:24:00.035Z,10.60
2019-05-01T02:29:09.332Z,10.59
2019-05-01T02:34:11.031Z,10.63
2019-05-01T02:39:13.534Z,10.68
2019-05-01T02:44:21.573Z,10.70
2019-05-01T02:49:31.109Z,10.72
2019-05-01T02:54:33.332Z,10.73
2019-05-01T02:59:36.122Z,10.73
2019-05-01T03:04:37.826Z,10.79
2019-05-01T03:09:40.196Z,10.80
2019-05-01T03:14:42.398Z,10.86
2019-05-01T03:19:49.407Z,10.91
2019-05-01T03:24:51.106Z,10.90
2019-05-01T03:29:52.836Z,10.93
2019-05-01T03:34:54.826Z,10.96
2019-05-01T03:39:56.520Z,11.02
2019-05-01T03:44:58.189Z,11.05
2019-05-01T03:50:00.324Z,11.09
2019-05-01T03:55:02.154Z,11.10
2019-05-01T04:00:06.014Z,11.13
2019-05-01T04:05:07.726Z,11.16
2019-05-01T04:10:09.719Z,11.23
2019-05-01T04:15:11.725Z,11.29
2019-05-01T04:20:13.373Z,11.30
2019-05-01T04:25:15.034Z,11.32
2019-05-01T04:30:23.255Z,11.33
2019-05-01T04:35:44.588Z,11.32
2019-05-01T04:40:46.282Z,11.32
2019-05-01T04:45:47.914Z,11.29
2019-05-01T04:50:49.590Z,11.24
2019-05-01T04:55:51.404Z,11.21
2019-05-01T05:00:53.215Z,11.20
2019-05-01T05:05:54.905Z,11.20
2019-05-01T05:10:58.379Z,11.21
2019-05-01T05:16:18.992Z,11.13
2019-05-01T05:21:20.668Z,11.04
2019-05-01T05:26:22.448Z,11.09
2019-05-01T05:31:25.065Z,11.06
2019-05-01T05:36:27.679Z,11.07
2019-05-01T05:41:30.376Z,11.16
2019-05-01T05:46:32.093Z,11.21
2019-05-01T05:52:04.285Z,11.26
2019-05-01T05:57:15.397Z,11.29
2019-05-01T06:02:37.276Z,11.30
2019-05-01T06:07:49.024Z,11.31
2019-05-01T06:13:17.874Z,11.36
2019-05-01T06:18:39.389Z,11.35
2019-05-01T06:24:06.359Z,11.45
2019-05-01T06:29:04.374Z,11.54
2019-05-01T06:34:06.088Z,11.58
2019-05-01T06:39:11.742Z,11.59
2019-05-01T06:44:18.158Z,11.59
2019-05-01T06:49:36.541Z,11.62
2019-05-01T06:54:38.322Z,11.72
2019-05-01T06:59:40.587Z,11.84
2019-05-01T07:04:42.910Z,11.97
2019-05-01T07:09:49.219Z,12.14
2019-05-01T07:14:50.818Z,12.29
2019-05-01T07:20:30.450Z,12.36
2019-05-01T07:25:34.915Z,12.42
2019-05-01T07:30:50.011Z,12.51
2019-05-01T07:35:49.804Z,12.64
2019-05-01T07:40:51.582Z,12.72
2019-05-01T07:46:02.358Z,12.82
2019-05-01T07:51:06.848Z,12.86
2019-05-01T07:56:08.871Z,12.88
2019-05-01T08:01:18.483Z,12.85
2019-05-01T08:06:21.859Z,12.84
2019-05-01T08:11:23.342Z,12.87
2019-05-01T08:16:25.089Z,12.91
2019-05-01T08:21:46.444Z,13.03
2019-05-01T08:26:49.446Z,13.11
2019-05-01T08:32:08.603Z,13.16
2019-05-01T08:37:10.318Z,13.28
2019-05-01T08:42:12.000Z,13.33
2019-05-01T08:47:25.783Z,13.37
2019-05-01T08:52:28.341Z,13.54
2019-05-01T08:57:34.570Z,13.54
2019-05-01T09:02:41.019Z,13.54
2019-05-01T09:07:40.314Z,13.46
2019-05-01T09:12:42.530Z,13.33
2019-05-01T09:24:13.174Z,13.12
2019-05-01T09:29:19.187Z,13.12
2019-05-01T09:34:21.162Z,13.19
2019-05-01T09:39:22.799Z,13.33
2019-05-01T09:44:24.423Z,13.51
2019-05-01T09:49:25.982Z,13.66
2019-05-01T09:54:34.830Z,13.76
2019-05-01T09:59:36.384Z,13.79
2019-05-01T10:04:37.978Z,13.98
2019-05-01T10:09:39.653Z,14.06
2019-05-01T10:14:41.227Z,14.21
2019-05-01T10:19:42.791Z,14.28
2019-05-01T10:24:44.361Z,14.34
2019-05-01T10:30:04.191Z,14.32
2019-05-01T10:35:19.129Z,14.35
2019-05-01T10:40:22.221Z,14.42
2019-05-01T10:45:22.760Z,14.54
2019-05-01T10:50:24.428Z,14.91
2019-05-01T10:55:26.848Z,15.14
2019-05-01T11:00:28.398Z,15.33
2019-05-01T11:05:29.960Z,15.40
2019-05-01T11:10:31.559Z,15.59
2019-05-01T11:15:33.245Z,15.75
2019-05-01T11:20:34.904Z,15.90
2019-05-01T11:25:39.677Z,15.95
2019-05-01T11:30:41.253Z,16.01
2019-05-01T11:36:20.664Z,16.26
2019-05-01T11:41:34.897Z,16.25
2019-05-01T11:46:36.475Z,16.30
2019-05-01T11:51:38.054Z,16.15
2019-05-01T11:56:39.723Z,16.03
2019-05-01T12:01:41.448Z,15.91
2019-05-01T12:06:43.069Z,15.76
2019-05-01T12:11:46.648Z,15.91
2019-05-01T12:17:05.561Z,16.82
2019-05-01T12:22:07.306Z,17.04
2019-05-01T12:27:09.054Z,16.70
2019-05-01T12:32:10.625Z,16.69
2019-05-01T12:37:23.365Z,17.28
2019-05-01T12:42:25.558Z,17.09
2019-05-01T12:47:48.416Z,17.63
2019-05-01T12:53:18.957Z,17.76
2019-05-01T12:58:20.552Z,17.78
2019-05-01T13:03:22.285Z,17.61
2019-05-01T13:08:23.855Z,17.77
2019-05-01T13:13:25.424Z,17.79
2019-05-01T13:18:27.001Z,18.14
2019-05-01T13:23:28.570Z,18.21
2019-05-01T13:28:49.910Z,18.23
2019-05-01T13:33:51.476Z,17.90
2019-05-01T13:38:53.069Z,17.72
2019-05-01T13:43:54.634Z,17.81
2019-05-01T13:48:56.217Z,17.75
2019-05-01T13:53:57.827Z,18.16
2019-05-01T13:58:59.569Z,18.10
2019-05-01T14:04:01.134Z,18.19
2019-05-01T14:09:05.179Z,18.29
2019-05-01T14:14:06.875Z,18.57
2019-05-01T14:19:08.473Z,18.94
2019-05-01T14:24:22.391Z,18.95
2019-05-01T14:29:23.976Z,18.91
2019-05-01T14:34:25.578Z,18.77
2019-05-01T14:39:27.165Z,19.02
2019-05-01T14:44:36.613Z,19.24
2019-05-01T14:49:32.329Z,18.97
2019-05-01T14:54:33.908Z,19.29
2019-05-01T14:59:35.488Z,20.38
2019-05-01T15:04:37.072Z,20.03
2019-05-01T15:09:38.636Z,19.64
2019-05-01T15:14:59.128Z,19.36
2019-05-01T15:20:03.277Z,20.14
2019-05-01T15:25:05.004Z,20.69
2019-05-01T15:30:07.300Z,21.34
2019-05-01T15:35:09.066Z,21.85
2019-05-01T15:40:27.364Z,22.11
2019-05-01T15:45:29.028Z,21.98
2019-05-01T15:50:30.702Z,22.17
2019-05-01T15:55:32.279Z,22.34
2019-05-01T16:00:33.839Z,22.31
2019-05-01T16:05:35.407Z,22.44
2019-05-01T16:10:44.560Z,22.34
2019-05-01T16:15:46.115Z,22.29
2019-05-01T16:20:47.833Z,22.27
2019-05-01T16:25:49.536Z,22.26
2019-05-01T16:30:51.240Z,22.09
2019-05-01T16:35:52.800Z,21.73
2019-05-01T16:41:01.820Z,21.34
2019-05-01T16:46:04.173Z,21.03
2019-05-01T16:51:05.845Z,20.63
2019-05-01T16:56:07.549Z,20.21
2019-05-01T17:01:14.445Z,19.91
2019-05-01T17:06:33.906Z,19.54
2019-05-01T17:11:35.570Z,19.29
2019-05-01T17:16:37.127Z,19.16
2019-05-01T17:21:38.789Z,19.11
2019-05-01T17:26:40.326Z,19.09
2019-05-01T17:31:41.930Z,19.13
2019-05-01T17:36:43.704Z,19.00
2019-05-01T17:41:45.268Z,18.82
2019-05-01T17:46:48.640Z,18.54
2019-05-01T17:51:50.320Z,18.26
2019-05-01T17:56:53.698Z,18.02
2019-05-01T18:02:10.236Z,17.81
2019-05-01T18:07:10.760Z,17.64
2019-05-01T18:12:12.456Z,17.46
2019-05-01T18:17:14.061Z,17.34
2019-05-01T18:22:26.946Z,17.22
2019-05-01T18:27:54.534Z,17.12
2019-05-01T18:32:56.696Z,17.03
2019-05-01T18:38:06.348Z,16.95
2019-05-01T18:43:07.723Z,16.86
2019-05-01T18:48:09.400Z,16.81
2019-05-01T18:53:12.534Z,16.77
2019-05-01T18:58:14.382Z,16.75
2019-05-01T19:03:16.135Z,16.71
2019-05-01T19:08:17.745Z,16.67
2019-05-01T19:13:20.053Z,16.56
2019-05-01T19:18:21.780Z,16.46
2019-05-01T19:23:27.713Z,16.36
2019-05-01T19:28:27.002Z,16.29
2019-05-01T19:33:28.791Z,16.22
2019-05-01T19:38:34.859Z,16.13
2019-05-01T19:43:35.888Z,16.05
2019-05-01T19:48:37.540Z,15.97
2019-05-01T19:53:39.115Z,15.93
2019-05-01T19:58:40.679Z,15.85
2019-05-01T20:03:42.313Z,15.83
2019-05-01T20:08:43.871Z,15.78
2019-05-01T20:13:45.555Z,15.72
2019-05-01T20:18:47.240Z,15.61
2019-05-01T20:23:48.907Z,15.52
2019-05-01T20:28:50.471Z,15.46
2019-05-01T20:33:52.178Z,15.35
2019-05-01T20:38:53.869Z,15.29
2019-05-01T20:43:55.468Z,15.26
2019-05-01T20:49:01.467Z,15.20
2019-05-01T20:54:00.521Z,15.18
2019-05-01T20:59:04.616Z,15.07
2019-05-01T21:04:17.191Z,15.03
2019-05-01T21:09:21.569Z,14.96
2019-05-01T21:14:23.253Z,14.90
2019-05-01T21:19:25.751Z,14.86
2019-05-01T21:24:28.350Z,14.82
2019-05-01T21:29:29.911Z,14.80
2019-05-01T21:34:33.317Z,14.78
2019-05-01T21:39:35.025Z,14.80
2019-05-01T21:44:36.691Z,14.83
2019-05-01T21:49:38.244Z,14.85
2019-05-01T21:54:39.813Z,14.84
2019-05-01T21:59:44.726Z,14.85
2019-05-01T22:04:44.816Z,14.84
2019-05-01T22:09:50.423Z,14.81
2019-05-01T22:14:57.237Z,14.76
2019-05-01T22:19:58.893Z,14.69
2019-05-01T22:25:09.824Z,14.63
2019-05-01T22:30:28.330Z,14.58
2019-05-01T22:35:32.708Z,14.50
2019-05-01T22:41:07.366Z,14.43
2019-05-01T22:46:16.448Z,14.42
2019-05-01T22:51:21.319Z,14.35
2019-05-01T22:56:23.665Z,14.31
2019-05-01T23:01:26.227Z,14.24
2019-05-01T23:06:27.781Z,14.21
2019-05-01T23:11:31.995Z,14.21
2019-05-01T23:16:39.220Z,14.15
2019-05-01T23:21:40.765Z,14.05
2019-05-01T23:26:42.318Z,13.99
2019-05-01T23:31:43.910Z,13.91
2019-05-01T23:36:45.480Z,13.87
2019-05-01T23:41:47.355Z,13.90
2019-05-01T23:46:48.926Z,13.83
2019-05-01T23:51:50.620Z,13.79
2019-05-01T23:56:52.268Z,13.72
